sensor_id;sensor_type;location;lat;lon;timestamp;P1;durP1;ratioP1;P2;durP2;ratioP2
70132;SDS011;57495;49.922;7.966;2023-02-26T00:01:58;5.13;;;1.00;;
70132;SDS011;57495;49.922;7.966;2023-02-26T00:04:01;4.45;;;1.13;;
70132;SDS011;57495;49.922;7.966;2023-02-26T00:06:05;5.00;;;1.25;;
70132;SDS011;57495;49.922;7.966;2023-02-26T00:08:07;4.63;;;1.05;;
70132;SDS011;57495;49.922;7.966;2023-02-26T00:10:09;3.35;;;1.10;;
70132;SDS011;57495;49.922;7.966;2023-02-26T00:12:13;4.07;;;0.90;;
70132;SDS011;57495;49.922;7.966;2023-02-26T00:14:15;9.65;;;1.00;;
70132;SDS011;57495;49.922;7.966;2023-02-26T00:16:20;3.67;;;0.93;;
70132;SDS011;57495;49.922;7.966;2023-02-26T00:18:28;4.53;;;1.23;;
70132;SDS011;57495;49.922;7.966;2023-02-26T00:20:30;6.90;;;1.27;;
70132;SDS011;57495;49.922;7.966;2023-02-26T00:22:33;4.35;;;0.88;;
70132;SDS011;57495;49.922;7.966;2023-02-26T00:24:35;5.22;;;0.73;;
70132;SDS011;57495;49.922;7.966;2023-02-26T00:26:36;4.60;;;1.05;;
70132;SDS011;57495;49.922;7.966;2023-02-26T00:28:38;4.80;;;1.02;;
70132;SDS011;57495;49.922;7.966;2023-02-26T00:30:40;5.68;;;1.00;;
70132;SDS011;57495;49.922;7.966;2023-02-26T00:32:42;4.32;;;0.90;;
70132;SDS011;57495;49.922;7.966;2023-02-26T00:34:45;5.63;;;1.38;;
70132;SDS011;57495;49.922;7.966;2023-02-26T00:36:49;4.93;;;1.10;;
70132;SDS011;57495;49.922;7.966;2023-02-26T00:39:04;4.07;;;0.80;;
70132;SDS011;57495;49.922;7.966;2023-02-26T00:41:13;4.43;;;0.82;;
70132;SDS011;57495;49.922;7.966;2023-02-26T00:43:15;4.55;;;0.68;;
70132;SDS011;57495;49.922;7.966;2023-02-26T00:45:19;4.70;;;1.00;;
70132;SDS011;57495;49.922;7.966;2023-02-26T00:47:24;6.63;;;0.85;;
70132;SDS011;57495;49.922;7.966;2023-02-26T00:49:38;4.68;;;0.90;;
70132;SDS011;57495;49.922;7.966;2023-02-26T00:51:50;5.22;;;1.52;;
70132;SDS011;57495;49.922;7.966;2023-02-26T00:53:57;3.72;;;1.27;;
70132;SDS011;57495;49.922;7.966;2023-02-26T00:56:03;5.43;;;1.10;;
70132;SDS011;57495;49.922;7.966;2023-02-26T00:58:05;5.15;;;1.10;;
70132;SDS011;57495;49.922;7.966;2023-02-26T01:00:06;4.57;;;1.10;;
70132;SDS011;57495;49.922;7.966;2023-02-26T01:02:09;5.72;;;1.40;;
70132;SDS011;57495;49.922;7.966;2023-02-26T01:04:10;3.30;;;1.00;;
70132;SDS011;57495;49.922;7.966;2023-02-26T01:06:16;4.30;;;0.90;;
70132;SDS011;57495;49.922;7.966;2023-02-26T01:08:23;3.92;;;1.02;;
70132;SDS011;57495;49.922;7.966;2023-02-26T01:10:31;4.97;;;1.02;;
70132;SDS011;57495;49.922;7.966;2023-02-26T01:12:33;4.68;;;1.10;;
70132;SDS011;57495;49.922;7.966;2023-02-26T01:14:35;6.00;;;1.00;;
70132;SDS011;57495;49.922;7.966;2023-02-26T01:16:37;3.78;;;1.00;;
70132;SDS011;57495;49.922;7.966;2023-02-26T01:18:45;4.22;;;0.80;;
70132;SDS011;57495;49.922;7.966;2023-02-26T01:20:52;3.88;;;0.80;;
70132;SDS011;57495;49.922;7.966;2023-02-26T01:22:59;5.18;;;1.15;;
70132;SDS011;57495;49.922;7.966;2023-02-26T01:25:07;9.50;;;1.30;;
70132;SDS011;57495;49.922;7.966;2023-02-26T01:27:10;7.10;;;1.00;;
70132;SDS011;57495;49.922;7.966;2023-02-26T01:29:12;6.00;;;1.33;;
70132;SDS011;57495;49.922;7.966;2023-02-26T01:31:20;4.95;;;0.80;;
70132;SDS011;57495;49.922;7.966;2023-02-26T01:33:34;4.38;;;0.95;;
70132;SDS011;57495;49.922;7.966;2023-02-26T01:35:41;3.20;;;0.90;;
70132;SDS011;57495;49.922;7.966;2023-02-26T01:37:46;5.15;;;1.38;;
70132;SDS011;57495;49.922;7.966;2023-02-26T01:39:59;5.18;;;0.98;;
70132;SDS011;57495;49.922;7.966;2023-02-26T01:42:15;5.03;;;1.00;;
70132;SDS011;57495;49.922;7.966;2023-02-26T01:44:21;3.88;;;0.80;;
70132;SDS011;57495;49.922;7.966;2023-02-26T01:46:29;4.38;;;0.98;;
70132;SDS011;57495;49.922;7.966;2023-02-26T01:48:36;5.28;;;1.50;;
70132;SDS011;57495;49.922;7.966;2023-02-26T01:50:45;5.22;;;1.10;;
70132;SDS011;57495;49.922;7.966;2023-02-26T01:55:22;5.75;;;1.17;;
70132;SDS011;57495;49.922;7.966;2023-02-26T01:57:26;3.80;;;0.90;;
70132;SDS011;57495;49.922;7.966;2023-02-26T01:59:28;4.80;;;1.08;;
70132;SDS011;57495;49.922;7.966;2023-02-26T02:01:29;4.65;;;0.88;;
70132;SDS011;57495;49.922;7.966;2023-02-26T02:03:33;5.13;;;1.20;;
70132;SDS011;57495;49.922;7.966;2023-02-26T02:05:40;5.78;;;0.73;;
70132;SDS011;57495;49.922;7.966;2023-02-26T02:07:45;4.18;;;1.23;;
70132;SDS011;57495;49.922;7.966;2023-02-26T02:09:46;4.38;;;0.98;;
70132;SDS011;57495;49.922;7.966;2023-02-26T02:11:54;3.53;;;0.90;;
70132;SDS011;57495;49.922;7.966;2023-02-26T02:14:11;4.97;;;1.13;;
70132;SDS011;57495;49.922;7.966;2023-02-26T02:16:20;4.40;;;1.00;;
70132;SDS011;57495;49.922;7.966;2023-02-26T02:18:34;5.53;;;1.10;;
70132;SDS011;57495;49.922;7.966;2023-02-26T02:21:00;4.57;;;1.17;;
70132;SDS011;57495;49.922;7.966;2023-02-26T02:23:24;7.80;;;1.15;;
70132;SDS011;57495;49.922;7.966;2023-02-26T02:25:39;5.70;;;1.13;;
70132;SDS011;57495;49.922;7.966;2023-02-26T02:28:01;4.22;;;0.73;;
70132;SDS011;57495;49.922;7.966;2023-02-26T02:30:23;4.65;;;0.95;;
70132;SDS011;57495;49.922;7.966;2023-02-26T02:32:38;7.28;;;0.88;;
70132;SDS011;57495;49.922;7.966;2023-02-26T02:34:45;7.68;;;1.30;;
70132;SDS011;57495;49.922;7.966;2023-02-26T02:36:50;3.78;;;1.30;;
70132;SDS011;57495;49.922;7.966;2023-02-26T02:38:58;6.10;;;1.13;;
70132;SDS011;57495;49.922;7.966;2023-02-26T02:41:06;4.28;;;0.77;;
70132;SDS011;57495;49.922;7.966;2023-02-26T02:43:12;3.80;;;1.13;;
70132;SDS011;57495;49.922;7.966;2023-02-26T02:45:16;6.82;;;0.90;;
70132;SDS011;57495;49.922;7.966;2023-02-26T02:47:20;4.63;;;0.90;;
70132;SDS011;57495;49.922;7.966;2023-02-26T02:49:26;6.32;;;1.50;;
70132;SDS011;57495;49.922;7.966;2023-02-26T02:51:32;6.63;;;1.50;;
70132;SDS011;57495;49.922;7.966;2023-02-26T02:53:38;6.63;;;1.27;;
70132;SDS011;57495;49.922;7.966;2023-02-26T02:55:45;6.47;;;1.25;;
70132;SDS011;57495;49.922;7.966;2023-02-26T02:57:54;10.70;;;1.38;;
70132;SDS011;57495;49.922;7.966;2023-02-26T03:00:00;9.02;;;1.30;;
70132;SDS011;57495;49.922;7.966;2023-02-26T03:02:06;8.95;;;1.70;;
70132;SDS011;57495;49.922;7.966;2023-02-26T03:04:13;10.32;;;3.00;;
70132;SDS011;57495;49.922;7.966;2023-02-26T03:06:18;9.23;;;2.90;;
70132;SDS011;57495;49.922;7.966;2023-02-26T03:08:21;8.75;;;2.25;;
70132;SDS011;57495;49.922;7.966;2023-02-26T03:10:26;7.50;;;1.95;;
70132;SDS011;57495;49.922;7.966;2023-02-26T03:12:30;6.28;;;1.48;;
70132;SDS011;57495;49.922;7.966;2023-02-26T03:14:32;7.35;;;1.40;;
70132;SDS011;57495;49.922;7.966;2023-02-26T03:16:38;4.95;;;1.23;;
70132;SDS011;57495;49.922;7.966;2023-02-26T03:18:50;4.82;;;1.20;;
70132;SDS011;57495;49.922;7.966;2023-02-26T03:21:01;6.20;;;1.08;;
70132;SDS011;57495;49.922;7.966;2023-02-26T03:23:08;6.40;;;1.05;;
70132;SDS011;57495;49.922;7.966;2023-02-26T03:25:15;4.97;;;0.98;;
70132;SDS011;57495;49.922;7.966;2023-02-26T03:27:21;4.80;;;1.15;;
70132;SDS011;57495;49.922;7.966;2023-02-26T03:29:32;3.88;;;1.10;;
70132;SDS011;57495;49.922;7.966;2023-02-26T03:31:40;3.75;;;1.10;;
70132;SDS011;57495;49.922;7.966;2023-02-26T03:33:52;4.30;;;1.45;;
70132;SDS011;57495;49.922;7.966;2023-02-26T03:36:00;4.45;;;1.40;;
70132;SDS011;57495;49.922;7.966;2023-02-26T03:38:13;5.05;;;1.67;;
70132;SDS011;57495;49.922;7.966;2023-02-26T03:40:24;5.03;;;1.50;;
70132;SDS011;57495;49.922;7.966;2023-02-26T03:42:32;6.88;;;1.45;;
70132;SDS011;57495;49.922;7.966;2023-02-26T03:44:38;6.10;;;1.17;;
70132;SDS011;57495;49.922;7.966;2023-02-26T03:46:44;7.00;;;1.45;;
70132;SDS011;57495;49.922;7.966;2023-02-26T03:48:49;4.50;;;1.38;;
70132;SDS011;57495;49.922;7.966;2023-02-26T03:50:53;3.95;;;1.17;;
70132;SDS011;57495;49.922;7.966;2023-02-26T03:53:00;5.50;;;1.35;;
70132;SDS011;57495;49.922;7.966;2023-02-26T03:55:07;4.68;;;1.00;;
70132;SDS011;57495;49.922;7.966;2023-02-26T03:57:11;4.80;;;1.30;;
70132;SDS011;57495;49.922;7.966;2023-02-26T03:59:13;4.30;;;1.50;;
70132;SDS011;57495;49.922;7.966;2023-02-26T04:01:17;5.07;;;1.15;;
70132;SDS011;57495;49.922;7.966;2023-02-26T04:03:23;4.07;;;1.10;;
70132;SDS011;57495;49.922;7.966;2023-02-26T04:05:29;4.15;;;1.20;;
70132;SDS011;57495;49.922;7.966;2023-02-26T04:07:35;5.22;;;1.15;;
70132;SDS011;57495;49.922;7.966;2023-02-26T04:09:36;4.40;;;1.80;;
70132;SDS011;57495;49.922;7.966;2023-02-26T04:11:39;5.47;;;1.23;;
70132;SDS011;57495;49.922;7.966;2023-02-26T04:13:41;5.43;;;1.52;;
70132;SDS011;57495;49.922;7.966;2023-02-26T04:15:43;7.00;;;1.38;;
70132;SDS011;57495;49.922;7.966;2023-02-26T04:17:44;9.63;;;1.20;;
70132;SDS011;57495;49.922;7.966;2023-02-26T04:19:45;6.32;;;1.45;;
70132;SDS011;57495;49.922;7.966;2023-02-26T04:21:47;4.60;;;0.85;;
70132;SDS011;57495;49.922;7.966;2023-02-26T04:23:49;5.88;;;1.70;;
70132;SDS011;57495;49.922;7.966;2023-02-26T04:25:50;5.35;;;1.48;;
70132;SDS011;57495;49.922;7.966;2023-02-26T04:27:53;6.90;;;1.70;;
70132;SDS011;57495;49.922;7.966;2023-02-26T04:29:55;4.63;;;1.15;;
70132;SDS011;57495;49.922;7.966;2023-02-26T04:31:56;5.82;;;1.33;;
70132;SDS011;57495;49.922;7.966;2023-02-26T04:33:58;4.85;;;1.05;;
70132;SDS011;57495;49.922;7.966;2023-02-26T04:35:59;5.13;;;1.20;;
70132;SDS011;57495;49.922;7.966;2023-02-26T04:38:00;4.88;;;1.58;;
70132;SDS011;57495;49.922;7.966;2023-02-26T04:40:02;4.93;;;1.33;;
70132;SDS011;57495;49.922;7.966;2023-02-26T04:42:04;5.72;;;1.55;;
70132;SDS011;57495;49.922;7.966;2023-02-26T04:44:08;3.60;;;1.00;;
70132;SDS011;57495;49.922;7.966;2023-02-26T04:46:09;5.10;;;1.23;;
70132;SDS011;57495;49.922;7.966;2023-02-26T04:48:11;3.50;;;1.50;;
70132;SDS011;57495;49.922;7.966;2023-02-26T04:50:12;3.97;;;1.30;;
70132;SDS011;57495;49.922;7.966;2023-02-26T04:52:17;4.10;;;1.30;;
70132;SDS011;57495;49.922;7.966;2023-02-26T04:54:18;5.38;;;1.02;;
70132;SDS011;57495;49.922;7.966;2023-02-26T04:56:20;4.50;;;1.00;;
70132;SDS011;57495;49.922;7.966;2023-02-26T04:58:21;5.03;;;1.10;;
70132;SDS011;57495;49.922;7.966;2023-02-26T05:00:24;5.60;;;1.10;;
70132;SDS011;57495;49.922;7.966;2023-02-26T05:02:26;5.63;;;1.30;;
70132;SDS011;57495;49.922;7.966;2023-02-26T05:04:27;4.47;;;1.45;;
70132;SDS011;57495;49.922;7.966;2023-02-26T05:06:29;5.82;;;1.42;;
70132;SDS011;57495;49.922;7.966;2023-02-26T05:08:32;3.58;;;1.10;;
70132;SDS011;57495;49.922;7.966;2023-02-26T05:10:33;3.65;;;1.10;;
70132;SDS011;57495;49.922;7.966;2023-02-26T05:12:34;4.60;;;1.10;;
70132;SDS011;57495;49.922;7.966;2023-02-26T05:14:36;9.00;;;2.65;;
70132;SDS011;57495;49.922;7.966;2023-02-26T05:16:39;8.77;;;3.67;;
70132;SDS011;57495;49.922;7.966;2023-02-26T05:18:40;10.00;;;3.42;;
70132;SDS011;57495;49.922;7.966;2023-02-26T05:20:42;10.25;;;3.60;;
70132;SDS011;57495;49.922;7.966;2023-02-26T05:22:43;10.80;;;5.13;;
70132;SDS011;57495;49.922;7.966;2023-02-26T05:24:45;6.82;;;2.65;;
70132;SDS011;57495;49.922;7.966;2023-02-26T05:26:47;3.92;;;1.10;;
70132;SDS011;57495;49.922;7.966;2023-02-26T05:28:48;6.13;;;1.20;;
70132;SDS011;57495;49.922;7.966;2023-02-26T05:30:50;5.20;;;1.35;;
70132;SDS011;57495;49.922;7.966;2023-02-26T05:32:53;4.30;;;1.20;;
70132;SDS011;57495;49.922;7.966;2023-02-26T05:34:54;3.83;;;1.15;;
70132;SDS011;57495;49.922;7.966;2023-02-26T05:36:56;5.07;;;1.48;;
70132;SDS011;57495;49.922;7.966;2023-02-26T05:38:58;4.63;;;1.67;;
70132;SDS011;57495;49.922;7.966;2023-02-26T05:41:02;5.25;;;1.77;;
70132;SDS011;57495;49.922;7.966;2023-02-26T05:43:04;4.53;;;1.17;;
70132;SDS011;57495;49.922;7.966;2023-02-26T05:45:06;5.22;;;1.15;;
70132;SDS011;57495;49.922;7.966;2023-02-26T05:47:08;5.82;;;1.35;;
70132;SDS011;57495;49.922;7.966;2023-02-26T05:49:11;4.97;;;1.10;;
70132;SDS011;57495;49.922;7.966;2023-02-26T05:51:12;5.15;;;1.10;;
70132;SDS011;57495;49.922;7.966;2023-02-26T05:53:13;5.22;;;1.70;;
70132;SDS011;57495;49.922;7.966;2023-02-26T05:55:15;4.78;;;1.25;;
70132;SDS011;57495;49.922;7.966;2023-02-26T05:57:17;4.40;;;1.00;;
70132;SDS011;57495;49.922;7.966;2023-02-26T05:59:18;3.53;;;0.80;;
70132;SDS011;57495;49.922;7.966;2023-02-26T06:01:20;4.68;;;1.23;;
70132;SDS011;57495;49.922;7.966;2023-02-26T06:03:21;3.58;;;1.00;;
70132;SDS011;57495;49.922;7.966;2023-02-26T06:05:24;4.00;;;1.05;;
70132;SDS011;57495;49.922;7.966;2023-02-26T06:07:26;4.25;;;1.02;;
70132;SDS011;57495;49.922;7.966;2023-02-26T06:09:27;4.57;;;1.05;;
70132;SDS011;57495;49.922;7.966;2023-02-26T06:11:29;6.88;;;1.25;;
70132;SDS011;57495;49.922;7.966;2023-02-26T06:13:32;3.28;;;0.82;;
70132;SDS011;57495;49.922;7.966;2023-02-26T06:15:33;6.15;;;0.75;;
70132;SDS011;57495;49.922;7.966;2023-02-26T06:17:37;3.80;;;0.75;;
70132;SDS011;57495;49.922;7.966;2023-02-26T06:19:39;4.00;;;1.10;;
70132;SDS011;57495;49.922;7.966;2023-02-26T06:21:41;3.78;;;1.20;;
70132;SDS011;57495;49.922;7.966;2023-02-26T06:23:43;4.32;;;0.98;;
70132;SDS011;57495;49.922;7.966;2023-02-26T06:25:44;4.65;;;1.10;;
70132;SDS011;57495;49.922;7.966;2023-02-26T06:27:46;2.50;;;0.65;;
70132;SDS011;57495;49.922;7.966;2023-02-26T06:29:47;3.33;;;0.70;;
70132;SDS011;57495;49.922;7.966;2023-02-26T06:31:49;3.58;;;0.80;;
70132;SDS011;57495;49.922;7.966;2023-02-26T06:33:50;3.50;;;0.70;;
70132;SDS011;57495;49.922;7.966;2023-02-26T06:35:52;3.83;;;0.68;;
70132;SDS011;57495;49.922;7.966;2023-02-26T06:37:56;4.53;;;0.70;;
70132;SDS011;57495;49.922;7.966;2023-02-26T06:39:57;7.63;;;0.95;;
70132;SDS011;57495;49.922;7.966;2023-02-26T06:41:59;3.50;;;0.98;;
70132;SDS011;57495;49.922;7.966;2023-02-26T06:44:00;6.18;;;1.40;;
70132;SDS011;57495;49.922;7.966;2023-02-26T06:46:02;5.90;;;1.20;;
70132;SDS011;57495;49.922;7.966;2023-02-26T06:48:03;3.20;;;0.73;;
70132;SDS011;57495;49.922;7.966;2023-02-26T06:50:05;3.05;;;0.85;;
70132;SDS011;57495;49.922;7.966;2023-02-26T06:52:07;4.75;;;1.13;;
70132;SDS011;57495;49.922;7.966;2023-02-26T06:54:10;3.90;;;0.70;;
70132;SDS011;57495;49.922;7.966;2023-02-26T06:56:11;3.50;;;0.70;;
70132;SDS011;57495;49.922;7.966;2023-02-26T06:58:13;4.50;;;0.60;;
70132;SDS011;57495;49.922;7.966;2023-02-26T07:00:14;6.43;;;0.90;;
70132;SDS011;57495;49.922;7.966;2023-02-26T07:02:17;4.45;;;0.70;;
70132;SDS011;57495;49.922;7.966;2023-02-26T07:04:20;4.13;;;0.70;;
70132;SDS011;57495;49.922;7.966;2023-02-26T07:06:21;7.03;;;0.80;;
70132;SDS011;57495;49.922;7.966;2023-02-26T07:08:22;3.17;;;0.70;;
70132;SDS011;57495;49.922;7.966;2023-02-26T07:10:25;5.00;;;1.08;;
70132;SDS011;57495;49.922;7.966;2023-02-26T07:12:27;3.05;;;0.80;;
70132;SDS011;57495;49.922;7.966;2023-02-26T07:14:28;3.72;;;1.00;;
70132;SDS011;57495;49.922;7.966;2023-02-26T07:16:30;7.03;;;1.00;;
70132;SDS011;57495;49.922;7.966;2023-02-26T07:18:31;4.43;;;0.93;;
70132;SDS011;57495;49.922;7.966;2023-02-26T07:20:33;3.95;;;0.73;;
70132;SDS011;57495;49.922;7.966;2023-02-26T07:22:35;2.95;;;0.93;;
70132;SDS011;57495;49.922;7.966;2023-02-26T07:24:37;3.38;;;0.90;;
70132;SDS011;57495;49.922;7.966;2023-02-26T07:26:39;4.47;;;0.85;;
70132;SDS011;57495;49.922;7.966;2023-02-26T07:28:41;3.90;;;0.80;;
70132;SDS011;57495;49.922;7.966;2023-02-26T07:30:42;4.50;;;1.20;;
70132;SDS011;57495;49.922;7.966;2023-02-26T07:32:44;4.35;;;1.40;;
70132;SDS011;57495;49.922;7.966;2023-02-26T07:34:45;4.60;;;1.20;;
70132;SDS011;57495;49.922;7.966;2023-02-26T07:36:46;3.80;;;1.00;;
70132;SDS011;57495;49.922;7.966;2023-02-26T07:38:48;5.63;;;1.42;;
70132;SDS011;57495;49.922;7.966;2023-02-26T07:40:49;4.10;;;1.17;;
70132;SDS011;57495;49.922;7.966;2023-02-26T07:42:52;6.90;;;2.25;;
70132;SDS011;57495;49.922;7.966;2023-02-26T07:44:53;3.67;;;1.13;;
70132;SDS011;57495;49.922;7.966;2023-02-26T07:46:55;4.85;;;1.10;;
70132;SDS011;57495;49.922;7.966;2023-02-26T07:48:56;4.10;;;1.27;;
70132;SDS011;57495;49.922;7.966;2023-02-26T07:50:58;4.32;;;1.17;;
70132;SDS011;57495;49.922;7.966;2023-02-26T07:52:59;4.35;;;1.02;;
70132;SDS011;57495;49.922;7.966;2023-02-26T07:55:01;3.72;;;0.80;;
70132;SDS011;57495;49.922;7.966;2023-02-26T07:57:02;7.13;;;0.95;;
70132;SDS011;57495;49.922;7.966;2023-02-26T07:59:05;2.58;;;0.82;;
70132;SDS011;57495;49.922;7.966;2023-02-26T08:01:07;4.20;;;0.93;;
70132;SDS011;57495;49.922;7.966;2023-02-26T08:03:09;3.80;;;0.80;;
70132;SDS011;57495;49.922;7.966;2023-02-26T08:05:10;3.28;;;0.88;;
70132;SDS011;57495;49.922;7.966;2023-02-26T08:07:11;3.85;;;1.23;;
70132;SDS011;57495;49.922;7.966;2023-02-26T08:09:13;4.97;;;1.17;;
70132;SDS011;57495;49.922;7.966;2023-02-26T08:11:14;4.95;;;1.30;;
70132;SDS011;57495;49.922;7.966;2023-02-26T08:13:16;3.83;;;1.00;;
70132;SDS011;57495;49.922;7.966;2023-02-26T08:15:19;6.53;;;2.05;;
70132;SDS011;57495;49.922;7.966;2023-02-26T08:17:20;8.48;;;1.70;;
70132;SDS011;57495;49.922;7.966;2023-02-26T08:19:21;8.70;;;4.10;;
70132;SDS011;57495;49.922;7.966;2023-02-26T08:21:23;5.47;;;2.15;;
70132;SDS011;57495;49.922;7.966;2023-02-26T08:23:24;4.35;;;1.35;;
70132;SDS011;57495;49.922;7.966;2023-02-26T08:25:26;6.47;;;1.88;;
70132;SDS011;57495;49.922;7.966;2023-02-26T08:27:28;4.72;;;1.55;;
70132;SDS011;57495;49.922;7.966;2023-02-26T08:29:30;5.45;;;1.40;;
70132;SDS011;57495;49.922;7.966;2023-02-26T08:31:32;4.78;;;1.52;;
70132;SDS011;57495;49.922;7.966;2023-02-26T08:33:34;5.55;;;2.28;;
70132;SDS011;57495;49.922;7.966;2023-02-26T08:35:35;20.58;;;6.78;;
70132;SDS011;57495;49.922;7.966;2023-02-26T08:37:38;17.60;;;5.22;;
70132;SDS011;57495;49.922;7.966;2023-02-26T08:39:40;6.50;;;2.63;;
70132;SDS011;57495;49.922;7.966;2023-02-26T08:41:41;3.30;;;1.08;;
70132;SDS011;57495;49.922;7.966;2023-02-26T08:43:42;6.93;;;1.85;;
70132;SDS011;57495;49.922;7.966;2023-02-26T08:45:44;4.90;;;0.98;;
70132;SDS011;57495;49.922;7.966;2023-02-26T08:47:47;5.95;;;1.30;;
70132;SDS011;57495;49.922;7.966;2023-02-26T08:49:51;4.15;;;1.08;;
70132;SDS011;57495;49.922;7.966;2023-02-26T08:51:52;3.58;;;0.85;;
70132;SDS011;57495;49.922;7.966;2023-02-26T08:53:53;4.50;;;1.05;;
70132;SDS011;57495;49.922;7.966;2023-02-26T08:55:55;5.22;;;1.10;;
70132;SDS011;57495;49.922;7.966;2023-02-26T08:57:57;2.70;;;0.75;;
70132;SDS011;57495;49.922;7.966;2023-02-26T08:59:58;4.78;;;1.08;;
70132;SDS011;57495;49.922;7.966;2023-02-26T09:01:59;3.25;;;0.70;;
70132;SDS011;57495;49.922;7.966;2023-02-26T09:04:02;4.18;;;0.70;;
70132;SDS011;57495;49.922;7.966;2023-02-26T09:06:04;4.28;;;0.85;;
70132;SDS011;57495;49.922;7.966;2023-02-26T09:08:05;3.78;;;0.80;;
70132;SDS011;57495;49.922;7.966;2023-02-26T09:10:08;3.92;;;0.45;;
70132;SDS011;57495;49.922;7.966;2023-02-26T09:12:10;3.38;;;0.82;;
70132;SDS011;57495;49.922;7.966;2023-02-26T09:14:12;3.83;;;0.68;;
70132;SDS011;57495;49.922;7.966;2023-02-26T09:16:14;3.80;;;0.90;;
70132;SDS011;57495;49.922;7.966;2023-02-26T09:18:15;5.68;;;0.85;;
70132;SDS011;57495;49.922;7.966;2023-02-26T09:20:18;2.83;;;0.52;;
70132;SDS011;57495;49.922;7.966;2023-02-26T09:22:19;2.15;;;0.50;;
70132;SDS011;57495;49.922;7.966;2023-02-26T09:24:21;3.85;;;0.70;;
70132;SDS011;57495;49.922;7.966;2023-02-26T09:26:22;2.75;;;0.60;;
70132;SDS011;57495;49.922;7.966;2023-02-26T09:28:24;3.00;;;0.80;;
70132;SDS011;57495;49.922;7.966;2023-02-26T09:30:26;2.83;;;0.93;;
70132;SDS011;57495;49.922;7.966;2023-02-26T09:32:27;2.95;;;0.47;;
70132;SDS011;57495;49.922;7.966;2023-02-26T09:34:29;3.65;;;0.80;;
70132;SDS011;57495;49.922;7.966;2023-02-26T09:36:31;4.13;;;0.60;;
70132;SDS011;57495;49.922;7.966;2023-02-26T09:38:34;3.35;;;0.77;;
70132;SDS011;57495;49.922;7.966;2023-02-26T09:40:39;2.42;;;0.50;;
70132;SDS011;57495;49.922;7.966;2023-02-26T09:42:49;4.05;;;0.75;;
70132;SDS011;57495;49.922;7.966;2023-02-26T09:45:00;2.97;;;0.50;;
70132;SDS011;57495;49.922;7.966;2023-02-26T09:47:03;4.25;;;0.70;;
70132;SDS011;57495;49.922;7.966;2023-02-26T09:49:15;3.15;;;0.57;;
70132;SDS011;57495;49.922;7.966;2023-02-26T09:51:25;3.28;;;0.30;;
70132;SDS011;57495;49.922;7.966;2023-02-26T09:53:29;2.33;;;0.50;;
70132;SDS011;57495;49.922;7.966;2023-02-26T09:55:38;2.63;;;0.50;;
70132;SDS011;57495;49.922;7.966;2023-02-26T09:57:44;2.63;;;0.40;;
70132;SDS011;57495;49.922;7.966;2023-02-26T09:59:47;2.47;;;0.40;;
70132;SDS011;57495;49.922;7.966;2023-02-26T10:01:51;4.93;;;0.40;;
70132;SDS011;57495;49.922;7.966;2023-02-26T10:03:59;3.40;;;0.47;;
70132;SDS011;57495;49.922;7.966;2023-02-26T10:06:13;4.05;;;0.63;;
70132;SDS011;57495;49.922;7.966;2023-02-26T10:08:19;3.33;;;0.30;;
70132;SDS011;57495;49.922;7.966;2023-02-26T10:10:30;2.70;;;0.30;;
70132;SDS011;57495;49.922;7.966;2023-02-26T10:12:39;1.42;;;0.20;;
70132;SDS011;57495;49.922;7.966;2023-02-26T10:14:43;5.85;;;0.77;;
70132;SDS011;57495;49.922;7.966;2023-02-26T10:16:51;3.22;;;0.43;;
70132;SDS011;57495;49.922;7.966;2023-02-26T10:18:58;3.03;;;0.40;;
70132;SDS011;57495;49.922;7.966;2023-02-26T10:21:06;1.92;;;0.40;;
70132;SDS011;57495;49.922;7.966;2023-02-26T10:23:15;3.00;;;0.45;;
70132;SDS011;57495;49.922;7.966;2023-02-26T10:25:23;3.17;;;0.40;;
70132;SDS011;57495;49.922;7.966;2023-02-26T10:27:37;2.38;;;0.32;;
70132;SDS011;57495;49.922;7.966;2023-02-26T10:29:48;4.82;;;0.73;;
70132;SDS011;57495;49.922;7.966;2023-02-26T10:32:01;4.05;;;0.70;;
70132;SDS011;57495;49.922;7.966;2023-02-26T10:34:12;2.40;;;0.47;;
70132;SDS011;57495;49.922;7.966;2023-02-26T10:36:22;2.72;;;0.70;;
70132;SDS011;57495;49.922;7.966;2023-02-26T10:38:26;2.42;;;0.40;;
70132;SDS011;57495;49.922;7.966;2023-02-26T10:40:31;3.47;;;0.40;;
70132;SDS011;57495;49.922;7.966;2023-02-26T10:42:40;4.07;;;0.40;;
70132;SDS011;57495;49.922;7.966;2023-02-26T10:44:46;2.47;;;0.30;;
70132;SDS011;57495;49.922;7.966;2023-02-26T10:46:56;2.58;;;0.50;;
70132;SDS011;57495;49.922;7.966;2023-02-26T10:49:13;2.45;;;0.35;;
70132;SDS011;57495;49.922;7.966;2023-02-26T10:51:33;3.85;;;0.40;;
70132;SDS011;57495;49.922;7.966;2023-02-26T10:53:36;1.17;;;0.13;;
70132;SDS011;57495;49.922;7.966;2023-02-26T10:55:38;2.85;;;0.40;;
70132;SDS011;57495;49.922;7.966;2023-02-26T10:57:46;1.13;;;0.10;;
70132;SDS011;57495;49.922;7.966;2023-02-26T10:59:53;2.75;;;0.45;;
70132;SDS011;57495;49.922;7.966;2023-02-26T11:01:55;3.35;;;0.30;;
70132;SDS011;57495;49.922;7.966;2023-02-26T11:03:57;2.72;;;0.43;;
70132;SDS011;57495;49.922;7.966;2023-02-26T11:06:02;2.30;;;0.30;;
70132;SDS011;57495;49.922;7.966;2023-02-26T11:08:08;2.78;;;0.40;;
70132;SDS011;57495;49.922;7.966;2023-02-26T11:10:14;2.95;;;0.50;;
70132;SDS011;57495;49.922;7.966;2023-02-26T11:12:17;4.72;;;0.50;;
70132;SDS011;57495;49.922;7.966;2023-02-26T11:14:24;1.70;;;0.30;;
70132;SDS011;57495;49.922;7.966;2023-02-26T11:16:25;3.05;;;0.70;;
70132;SDS011;57495;49.922;7.966;2023-02-26T11:18:28;4.30;;;0.50;;
70132;SDS011;57495;49.922;7.966;2023-02-26T11:20:33;1.95;;;0.30;;
70132;SDS011;57495;49.922;7.966;2023-02-26T11:22:37;4.82;;;0.80;;
70132;SDS011;57495;49.922;7.966;2023-02-26T11:24:40;2.33;;;0.30;;
70132;SDS011;57495;49.922;7.966;2023-02-26T11:26:46;2.22;;;0.40;;
70132;SDS011;57495;49.922;7.966;2023-02-26T11:28:52;2.80;;;0.52;;
70132;SDS011;57495;49.922;7.966;2023-02-26T11:30:57;2.75;;;0.40;;
70132;SDS011;57495;49.922;7.966;2023-02-26T11:33:03;4.22;;;0.57;;
70132;SDS011;57495;49.922;7.966;2023-02-26T11:35:12;2.88;;;0.50;;
70132;SDS011;57495;49.922;7.966;2023-02-26T11:37:16;3.47;;;0.60;;
70132;SDS011;57495;49.922;7.966;2023-02-26T11:39:20;2.03;;;0.40;;
70132;SDS011;57495;49.922;7.966;2023-02-26T11:41:24;2.28;;;0.30;;
70132;SDS011;57495;49.922;7.966;2023-02-26T11:43:32;4.68;;;1.20;;
70132;SDS011;57495;49.922;7.966;2023-02-26T11:45:38;3.00;;;0.30;;
70132;SDS011;57495;49.922;7.966;2023-02-26T11:47:44;4.85;;;0.47;;
70132;SDS011;57495;49.922;7.966;2023-02-26T11:49:48;2.83;;;0.40;;
70132;SDS011;57495;49.922;7.966;2023-02-26T11:52:00;3.63;;;0.68;;
70132;SDS011;57495;49.922;7.966;2023-02-26T11:54:16;1.55;;;0.20;;
70132;SDS011;57495;49.922;7.966;2023-02-26T11:56:25;2.03;;;0.52;;
70132;SDS011;57495;49.922;7.966;2023-02-26T11:58:31;1.92;;;0.40;;
70132;SDS011;57495;49.922;7.966;2023-02-26T12:00:36;2.08;;;0.60;;
70132;SDS011;57495;49.922;7.966;2023-02-26T12:02:39;3.33;;;0.63;;
70132;SDS011;57495;49.922;7.966;2023-02-26T12:04:43;2.20;;;0.45;;
70132;SDS011;57495;49.922;7.966;2023-02-26T12:06:46;3.53;;;0.50;;
70132;SDS011;57495;49.922;7.966;2023-02-26T12:08:50;2.00;;;0.40;;
70132;SDS011;57495;49.922;7.966;2023-02-26T12:10:57;2.30;;;0.43;;
70132;SDS011;57495;49.922;7.966;2023-02-26T12:13:14;2.95;;;0.50;;
70132;SDS011;57495;49.922;7.966;2023-02-26T12:15:30;3.00;;;0.30;;
70132;SDS011;57495;49.922;7.966;2023-02-26T12:17:40;1.95;;;0.30;;
70132;SDS011;57495;49.922;7.966;2023-02-26T12:19:54;1.95;;;0.30;;
70132;SDS011;57495;49.922;7.966;2023-02-26T12:22:07;3.25;;;0.38;;
70132;SDS011;57495;49.922;7.966;2023-02-26T12:24:26;2.05;;;0.28;;
70132;SDS011;57495;49.922;7.966;2023-02-26T12:26:39;2.00;;;0.32;;
70132;SDS011;57495;49.922;7.966;2023-02-26T12:28:50;2.20;;;0.30;;
70132;SDS011;57495;49.922;7.966;2023-02-26T12:31:08;2.30;;;0.30;;
70132;SDS011;57495;49.922;7.966;2023-02-26T12:33:27;2.50;;;0.25;;
70132;SDS011;57495;49.922;7.966;2023-02-26T12:35:45;1.73;;;0.22;;